Time;durP1;ratioP1;P1;durP2;ratioP2;P2;SDS_P1;SDS_P2;PMS_P1;PMS_P2;Temp;Humidity;BMP_temperature;BMP_pressure;BME280_temperature;BME280_humidity;BME280_pressure;Samples;Min_cycle;Max_cycle;Signal;HPM_P1;HPM_P2
2021/08/17 00:01:19;;;;;;;17.05;14.25;;;;;;;26.65;46.02;100315.25;1730038;80;20916;-57
2021/08/17 00:03:45;;;;;;;18.65;14.65;;;;;;;26.66;46.06;100315.45;1732919;80;21524;-57
2021/08/17 00:06:11;;;;;;;18.15;15.13;;;;;;;26.66;46.10;100316.25;1726475;80;21024;-57
2021/08/17 00:08:37;;;;;;;17.73;13.95;;;;;;;26.66;46.12;100316.84;1727642;80;21315;-56
2021/08/17 00:11:03;;;;;;;18.48;14.75;;;;;;;26.66;46.18;100323.81;1729170;80;21091;-56
2021/08/17 00:13:29;;;;;;;19.48;14.63;;;;;;;26.67;46.20;100320.67;1736107;80;20997;-57
2021/08/17 00:15:55;;;;;;;18.45;13.60;;;;;;;26.67;46.24;100323.45;1725234;81;20911;-56
2021/08/17 00:18:21;;;;;;;18.75;13.70;;;;;;;26.67;46.26;100323.45;1725725;80;21011;-57
2021/08/17 00:20:47;;;;;;;16.67;13.75;;;;;;;26.68;46.30;100320.08;1725558;80;21048;-56
2021/08/17 00:23:14;;;;;;;18.12;13.83;;;;;;;26.68;46.35;100323.69;1728343;80;21113;-57
2021/08/17 00:25:44;;;;;;;17.67;13.65;;;;;;;26.68;46.37;100322.29;1727483;80;21114;-57
2021/08/17 00:28:10;;;;;;;16.70;13.95;;;;;;;26.69;46.39;100324.50;1729826;80;21065;-57
2021/08/17 00:30:37;;;;;;;16.65;12.75;;;;;;;26.69;46.44;100319.69;1728810;80;20995;-57
2021/08/17 00:33:03;;;;;;;16.77;13.95;;;;;;;26.70;46.47;100319.11;1729637;80;21224;-56
2021/08/17 00:35:30;;;;;;;17.80;13.50;;;;;;;26.71;46.49;100313.75;1730242;80;21034;-56
2021/08/17 00:37:56;;;;;;;15.00;13.15;;;;;;;26.71;46.52;100315.95;1732230;80;21066;-57
2021/08/17 00:40:22;;;;;;;18.60;13.50;;;;;;;26.71;46.55;100315.14;1736117;80;21043;-56
2021/08/17 00:42:49;;;;;;;17.30;13.38;;;;;;;26.72;46.59;100316.77;1730760;80;21046;-56
2021/08/17 00:45:21;;;;;;;16.15;12.98;;;;;;;26.73;46.61;100318.39;1735620;80;23176;-57
2021/08/17 00:47:50;;;;;;;17.57;13.62;;;;;;;26.73;46.65;100318.39;1737831;80;21513;-57
2021/08/17 00:50:16;;;;;;;16.82;12.68;;;;;;;26.73;46.68;100314.98;1730658;80;21094;-57
2021/08/17 00:52:42;;;;;;;15.83;13.18;;;;;;;26.74;46.72;100317.19;1729638;80;21110;-56
2021/08/17 00:55:10;;;;;;;16.15;12.90;;;;;;;26.74;46.75;100313.81;1739438;80;21141;-57
2021/08/17 00:57:38;;;;;;;15.80;12.75;;;;;;;26.75;46.79;100310.44;1735209;80;21544;-57
2021/08/17 01:00:12;;;;;;;15.38;12.60;;;;;;;26.75;46.83;100308.45;1739654;80;21579;-57
2021/08/17 01:02:38;;;;;;;14.40;12.63;;;;;;;26.75;46.88;100316.83;1731091;80;21378;-57
2021/08/17 01:05:06;;;;;;;18.00;12.73;;;;;;;26.76;46.89;100312.05;1740492;80;20888;-57
2021/08/17 01:07:32;;;;;;;15.23;12.63;;;;;;;26.76;46.93;100305.08;1738940;80;21149;-57
2021/08/17 01:09:58;;;;;;;19.42;12.58;;;;;;;26.76;46.97;100308.68;1740581;80;21411;-56
2021/08/17 01:12:24;;;;;;;15.53;12.73;;;;;;;26.76;46.98;100301.70;1740421;80;20911;-57
2021/08/17 01:14:51;;;;;;;16.37;12.95;;;;;;;26.77;47.02;100302.52;1739648;80;21004;-57
2021/08/17 01:17:18;;;;;;;17.95;13.32;;;;;;;26.77;47.04;100302.52;1735237;80;21078;-57
2021/08/17 01:19:48;;;;;;;17.40;13.43;;;;;;;26.77;47.08;100300.53;1731865;80;21047;-56
2021/08/17 01:22:14;;;;;;;;;;;;;;;26.77;47.10;100306.11;1739993;80;21450;-56
2021/08/17 01:24:40;;;;;;;15.48;12.73;;;;;;;26.79;47.12;100301.53;1733706;80;20210;-57
2021/08/17 01:27:07;;;;;;;16.25;13.13;;;;;;;26.78;47.10;100306.30;1739765;80;21793;-57
2021/08/17 01:29:33;;;;;;;14.98;12.93;;;;;;;26.77;47.17;100297.74;1734498;80;21032;-57
2021/08/17 01:31:59;;;;;;;15.25;13.00;;;;;;;26.78;47.21;100297.13;1727482;80;20990;-57
2021/08/17 01:34:25;;;;;;;15.18;12.55;;;;;;;26.78;47.29;100295.73;1740780;80;22117;-57
2021/08/17 01:36:51;;;;;;;14.68;12.40;;;;;;;26.80;47.38;100303.16;1736004;80;20908;-57
2021/08/17 01:39:17;;;;;;;13.32;11.55;;;;;;;26.80;47.38;100308.16;1740922;80;21450;-56
2021/08/17 01:41:45;;;;;;;13.65;10.75;;;;;;;26.80;47.36;100297.57;1743255;80;21071;-56
2021/08/17 01:44:14;;;;;;;14.00;11.10;;;;;;;26.82;47.31;100303.58;1739758;80;21490;-57
2021/08/17 01:46:44;;;;;;;12.53;10.43;;;;;;;26.82;47.30;100305.78;1740567;80;21084;-57
2021/08/17 01:49:17;;;;;;;15.18;11.05;;;;;;;26.82;47.25;100297.41;1743728;80;21079;-57
2021/08/17 01:51:45;;;;;;;12.45;10.72;;;;;;;26.82;47.19;100297.41;1743427;80;21082;-57
2021/08/17 01:54:14;;;;;;;13.38;11.78;;;;;;;26.82;47.18;100294.61;1741716;80;21078;-57
2021/08/17 01:56:40;;;;;;;12.03;10.72;;;;;;;26.83;47.14;100296.81;1742562;80;21581;-57
2021/08/17 01:59:06;;;;;;;13.83;10.85;;;;;;;26.83;47.14;100287.05;1744815;80;21988;-57
2021/08/17 02:01:32;;;;;;;12.53;10.63;;;;;;;26.83;47.13;100286.47;1745289;80;21062;-57
2021/08/17 02:03:58;;;;;;;14.43;11.80;;;;;;;26.85;47.11;100288.92;1741054;80;21517;-57
2021/08/17 02:06:24;;;;;;;12.78;10.55;;;;;;;26.85;47.10;100281.95;1733374;80;21074;-57
2021/08/17 02:08:50;;;;;;;12.58;10.40;;;;;;;26.85;47.10;100283.34;1742330;80;21072;-57
2021/08/17 02:11:17;;;;;;;13.62;10.90;;;;;;;26.86;47.09;100281.36;1744836;80;21063;-57
2021/08/17 02:13:43;;;;;;;13.75;11.43;;;;;;;26.86;47.12;100282.76;1740957;80;21042;-57
2021/08/17 02:16:09;;;;;;;13.03;11.10;;;;;;;26.86;47.11;100283.56;1703455;82;21045;-57
2021/08/17 02:18:35;;;;;;;12.00;10.55;;;;;;;26.86;47.10;100284.97;1660167;83;20985;-57
2021/08/17 02:21:02;;;;;;;13.70;11.55;;;;;;;26.87;47.09;100292.13;1745939;80;21014;-57
2021/08/17 02:23:29;;;;;;;13.13;10.63;;;;;;;26.87;47.10;100286.55;1737368;80;21184;-58
2021/08/17 02:25:55;;;;;;;13.08;10.38;;;;;;;26.89;47.11;100291.77;1741991;80;21046;-57
2021/08/17 02:28:21;;;;;;;13.58;10.60;;;;;;;26.89;47.15;100280.61;1744169;80;21015;-57
2021/08/17 02:30:48;;;;;;;14.13;10.85;;;;;;;26.88;47.16;100281.19;1737830;80;21554;-56
2021/08/17 02:33:15;;;;;;;12.05;10.10;;;;;;;26.89;47.16;100281.42;1745664;80;21120;-57
2021/08/17 02:35:42;;;;;;;12.75;10.98;;;;;;;26.89;47.18;100277.81;1744602;80;21460;-57
2021/08/17 02:38:09;;;;;;;12.47;10.70;;;;;;;26.89;47.21;100275.83;1740294;80;21049;-57
2021/08/17 02:40:35;;;;;;;11.75;9.83;;;;;;;26.90;47.25;100278.84;1728132;80;21087;-57
2021/08/17 02:43:02;;;;;;;13.10;10.90;;;;;;;26.90;47.28;100276.06;1731481;80;21981;-57
2021/08/17 02:45:28;;;;;;;12.73;10.25;;;;;;;26.90;47.32;100275.25;1727403;80;20948;-57
2021/08/17 02:47:57;;;;;;;12.73;10.35;;;;;;;26.91;47.31;100274.86;1724907;80;21303;-58
2021/08/17 02:50:24;;;;;;;16.25;11.30;;;;;;;26.91;47.33;100268.47;1728523;80;21070;-57
2021/08/17 02:52:51;;;;;;;15.58;11.35;;;;;;;26.91;47.38;100265.09;1722304;80;21509;-57
2021/08/17 02:55:17;;;;;;;11.33;10.08;;;;;;;26.90;47.41;100265.48;1736533;80;21927;-56
2021/08/17 02:57:56;;;;;;;11.80;10.53;;;;;;;26.91;47.45;100263.69;1732181;80;21124;-57
2021/08/17 03:00:22;;;;;;;11.88;10.38;;;;;;;26.90;47.47;100266.28;1734299;80;21999;-56
2021/08/17 03:02:48;;;;;;;12.35;10.65;;;;;;;26.90;47.47;100260.70;1727007;80;21096;-57
2021/08/17 03:05:14;;;;;;;11.48;9.60;;;;;;;26.90;47.51;100270.48;1732724;80;21533;-57
2021/08/17 03:07:52;;;;;;;12.45;9.95;;;;;;;26.89;47.55;100264.67;1734904;80;20980;-57
2021/08/17 03:10:19;;;;;;;14.00;10.55;;;;;;;26.91;47.55;100266.48;1705436;82;21697;-57
2021/08/17 03:12:45;;;;;;;11.57;10.38;;;;;;;26.90;47.59;100262.10;1729379;80;21112;-57
2021/08/17 03:15:12;;;;;;;12.03;9.83;;;;;;;26.91;47.60;100265.67;1731542;80;21489;-57
2021/08/17 03:17:38;;;;;;;11.57;9.75;;;;;;;26.91;47.64;100269.27;1733058;80;21079;-57
2021/08/17 03:20:09;;;;;;;11.40;10.00;;;;;;;26.90;47.65;100267.69;1731873;80;21039;-57
2021/08/17 03:22:36;;;;;;;13.53;10.15;;;;;;;26.90;47.68;100280.25;1728964;80;20999;-57
2021/08/17 03:25:07;;;;;;;13.70;10.50;;;;;;;26.90;47.71;100272.45;1729747;80;21823;-57
2021/08/17 03:27:34;;;;;;;12.37;10.45;;;;;;;26.90;47.74;100281.64;1716183;82;21091;-57
2021/08/17 03:30:00;;;;;;;14.07;9.88;;;;;;;26.92;47.75;100286.83;1733232;80;21086;-56
2021/08/17 03:32:26;;;;;;;13.62;9.75;;;;;;;26.91;47.78;100286.61;1696618;83;21445;-57
2021/08/17 03:34:53;;;;;;;11.97;10.20;;;;;;;26.90;47.84;100292.80;1720296;81;21149;-57
2021/08/17 03:37:19;;;;;;;12.55;10.18;;;;;;;26.91;47.85;100293.59;1723024;82;21126;-57
2021/08/17 03:39:46;;;;;;;13.38;9.18;;;;;;;26.91;47.92;100297.19;1739576;81;21096;-57
2021/08/17 03:42:13;;;;;;;15.32;10.63;;;;;;;26.91;47.92;100289.40;1715531;82;21060;-57
2021/08/17 03:44:39;;;;;;;12.70;9.88;;;;;;;26.91;47.97;100291.61;1704669;83;21501;-57
2021/08/17 03:47:05;;;;;;;12.33;9.50;;;;;;;26.91;47.98;100287.42;1694371;84;21039;-57
2021/08/17 03:49:32;;;;;;;12.60;9.48;;;;;;;26.90;48.00;100290.02;1696175;83;21201;-57
2021/08/17 03:51:58;;;;;;;11.75;9.30;;;;;;;26.91;48.00;100293.00;1695633;84;21122;-55
2021/08/17 03:54:24;;;;;;;12.50;9.35;;;;;;;26.90;48.04;100283.04;1691937;83;21071;-55
2021/08/17 03:56:50;;;;;;;10.05;8.83;;;;;;;26.91;48.06;100282.42;1691419;82;21141;-51
2021/08/17 03:59:16;;;;;;;21.62;11.45;;;;;;;26.92;48.09;100285.44;1692267;84;21076;-51
2021/08/17 04:01:42;;;;;;;18.67;10.68;;;;;;;26.92;48.13;100287.64;1691585;84;21110;-53
2021/08/17 04:04:08;;;;;;;73.55;23.02;;;;;;;26.92;48.16;100290.44;1697294;84;21044;-49
2021/08/17 04:06:35;;;;;;;122.92;37.17;;;;;;;26.93;48.20;100286.47;1694128;83;21032;-56
2021/08/17 04:09:01;;;;;;;216.23;56.88;;;;;;;26.93;48.24;100287.05;1697925;83;21107;-55
2021/08/17 04:11:27;;;;;;;532.12;171.45;;;;;;;26.94;48.30;100285.30;1696747;83;20944;-47
2021/08/17 04:13:53;;;;;;;279.35;67.67;;;;;;;26.95;48.36;100283.28;1696658;83;21083;-49
2021/08/17 04:16:19;;;;;;;132.93;33.60;;;;;;;26.95;48.41;100285.48;1690725;83;20923;-51
2021/08/17 04:18:45;;;;;;;532.58;149.00;;;;;;;26.96;48.46;100285.72;1693626;83;20937;-48
2021/08/17 04:21:11;;;;;;;524.02;147.02;;;;;;;26.96;48.48;100288.50;1692341;83;21090;-51
2021/08/17 04:23:37;;;;;;;360.52;93.82;;;;;;;26.96;48.52;100285.72;1696956;83;21106;-55
2021/08/17 04:26:03;;;;;;;72.50;19.82;;;;;;;26.98;48.56;100287.56;1696640;83;21531;-49
2021/08/17 04:28:29;;;;;;;28.30;11.33;;;;;;;26.99;48.57;100287.75;1697306;83;21016;-49
2021/08/17 04:30:55;;;;;;;63.42;22.25;;;;;;;26.99;48.57;100288.37;1692326;84;21719;-47
2021/08/17 04:33:22;;;;;;;37.33;11.78;;;;;;;26.99;48.57;100286.36;1690553;84;22011;-48
2021/08/17 04:35:48;;;;;;;14.85;8.53;;;;;;;26.98;48.50;100283.37;1713419;82;21023;-48
2021/08/17 04:38:14;;;;;;;18.20;9.73;;;;;;;26.99;48.57;100282.78;1716939;82;21662;-51
2021/08/17 04:40:40;;;;;;;13.88;8.33;;;;;;;27.01;48.57;100280.41;1672222;84;20918;-46
2021/08/17 04:43:06;;;;;;;16.07;8.50;;;;;;;27.01;48.58;100279.82;1702179;83;21079;-50
2021/08/17 04:45:32;;;;;;;12.28;8.20;;;;;;;27.02;48.57;100287.02;1694610;83;21041;-50
2021/08/17 04:47:58;;;;;;;9.73;7.03;;;;;;;27.02;48.62;100281.44;1697961;83;20932;-47
2021/08/17 04:50:24;;;;;;;10.53;7.17;;;;;;;27.02;48.64;100282.84;1698283;84;21949;-47
2021/08/17 04:52:50;;;;;;;9.40;6.40;;;;;;;27.03;48.60;100279.45;1699044;83;21688;-48
2021/08/17 04:55:16;;;;;;;12.93;8.15;;;;;;;27.03;48.53;100276.67;1701308;83;21073;-48
2021/08/17 04:57:57;;;;;;;10.75;7.37;;;;;;;27.03;48.54;100277.45;1701821;84;21442;-47
2021/08/17 05:00:24;;;;;;;;;;;;;;;27.04;48.72;100274.06;1702128;83;21108;-50
2021/08/17 05:02:50;;;;;;;11.43;7.67;;;;;;;27.04;48.81;100275.46;1701186;83;21061;-48
2021/08/17 05:05:17;;;;;;;10.35;7.03;;;;;;;27.03;48.87;100276.67;1699924;83;21574;-48
2021/08/17 05:07:43;;;;;;;13.88;8.33;;;;;;;27.03;49.01;100277.45;1699951;83;21241;-51
2021/08/17 05:10:15;;;;;;;13.30;7.60;;;;;;;27.04;49.12;100276.86;1702978;83;21496;-48
2021/08/17 05:12:41;;;;;;;11.95;7.15;;;;;;;27.05;49.25;100276.50;1702361;83;20991;-53
2021/08/17 05:15:09;;;;;;;11.93;8.38;;;;;;;27.04;49.32;100272.09;1703770;83;21071;-49
2021/08/17 05:17:35;;;;;;;14.40;6.83;;;;;;;27.05;49.38;100277.08;1702235;83;21007;-48
2021/08/17 05:20:04;;;;;;;11.18;7.70;;;;;;;27.05;49.44;100272.89;1704996;83;21074;-50
2021/08/17 05:22:30;;;;;;;10.60;6.62;;;;;;;27.06;49.48;100273.12;1702191;83;21044;-48
2021/08/17 05:24:56;;;;;;;10.72;6.67;;;;;;;27.05;49.51;100273.70;1699536;83;21126;-49
2021/08/17 05:27:22;;;;;;;11.22;7.08;;;;;;;27.05;49.54;100270.91;1701135;83;21085;-48
2021/08/17 05:29:51;;;;;;;10.53;7.00;;;;;;;27.06;49.54;100270.33;1701017;83;21073;-49
2021/08/17 05:32:17;;;;;;;11.88;7.53;;;;;;;27.05;49.54;100275.10;1700335;83;21032;-48
2021/08/17 05:34:43;;;;;;;8.83;6.30;;;;;;;27.05;49.55;100274.29;1704037;83;21045;-50
2021/08/17 05:37:09;;;;;;;9.35;6.72;;;;;;;27.06;49.56;100274.52;1702049;83;20928;-48
2021/08/17 05:39:35;;;;;;;9.18;6.70;;;;;;;27.06;49.56;100275.91;1695271;83;21543;-47
2021/08/17 05:42:01;;;;;;;9.63;6.50;;;;;;;27.05;49.55;100273.70;1682375;84;20876;-49
2021/08/17 05:44:27;;;;;;;9.80;6.12;;;;;;;27.05;49.55;100267.31;1671493;84;21080;-49
2021/08/17 05:46:53;;;;;;;8.65;6.28;;;;;;;27.06;49.56;100271.14;1670510;84;21032;-50
2021/08/17 05:49:20;;;;;;;9.13;6.00;;;;;;;27.05;49.55;100268.13;1674133;84;21024;-48
2021/08/17 05:51:46;;;;;;;8.43;6.05;;;;;;;27.05;49.56;100270.91;1671884;84;21767;-47
2021/08/17 05:54:12;;;;;;;7.40;5.87;;;;;;;27.05;49.56;100270.10;1674418;83;21045;-50
2021/08/17 05:56:38;;;;;;;9.50;6.35;;;;;;;27.06;49.56;100271.72;1677507;84;21025;-49
2021/08/17 05:59:04;;;;;;;8.23;6.15;;;;;;;27.04;49.57;100273.48;1678698;83;21661;-47
2021/08/17 06:01:30;;;;;;;7.10;5.92;;;;;;;27.04;49.54;100275.46;1680568;84;21084;-51
2021/08/17 06:03:57;;;;;;;9.38;5.60;;;;;;;27.04;49.57;100269.30;1680043;84;21263;-47
2021/08/17 06:06:23;;;;;;;8.38;5.95;;;;;;;27.04;49.54;100275.46;1687360;84;21185;-48
2021/08/17 06:08:50;;;;;;;10.35;6.15;;;;;;;27.04;49.57;100270.69;1680536;84;21123;-48
2021/08/17 06:11:17;;;;;;;8.83;5.65;;;;;;;27.04;49.57;100268.48;1679189;84;21061;-50
2021/08/17 06:13:43;;;;;;;8.80;5.85;;;;;;;27.03;49.56;100259.91;1682316;84;21103;-48
2021/08/17 06:16:09;;;;;;;8.95;6.12;;;;;;;27.03;49.57;100262.09;1667593;84;20969;-51
2021/08/17 06:18:35;;;;;;;9.48;6.08;;;;;;;27.04;49.57;100265.69;1668098;84;21016;-49
2021/08/17 06:21:01;;;;;;;11.05;5.47;;;;;;;27.03;49.58;100268.29;1677795;84;21068;-49
2021/08/17 06:23:27;;;;;;;7.72;5.53;;;;;;;27.03;49.58;100270.47;1677982;84;20992;-51
2021/08/17 06:25:53;;;;;;;6.20;5.33;;;;;;;27.03;49.58;100266.89;1680460;84;20901;-50
2021/08/17 06:28:19;;;;;;;7.50;5.50;;;;;;;27.03;49.58;100266.28;1677340;84;21697;-50
2021/08/17 06:30:45;;;;;;;6.87;5.55;;;;;;;27.03;49.56;100269.07;1687502;82;21063;-50
2021/08/17 06:33:11;;;;;;;6.87;5.70;;;;;;;27.03;49.56;100265.50;1678214;83;21038;-47
2021/08/17 06:35:37;;;;;;;7.62;5.35;;;;;;;27.04;49.54;100268.48;1676931;84;21232;-49
2021/08/17 06:38:03;;;;;;;7.17;5.30;;;;;;;27.02;49.53;100267.48;1675105;83;21017;-51
2021/08/17 06:40:29;;;;;;;9.63;5.37;;;;;;;27.03;49.51;100273.26;1681976;83;21602;-48
2021/08/17 06:42:56;;;;;;;6.37;4.97;;;;;;;27.02;49.52;100261.90;1700658;83;22998;-48
2021/08/17 06:45:22;;;;;;;7.50;4.87;;;;;;;27.03;49.50;100269.69;1696760;83;21085;-48
2021/08/17 06:47:51;;;;;;;7.05;5.37;;;;;;;27.04;49.50;100269.30;1702013;83;21002;-47
2021/08/17 06:50:18;;;;;;;6.55;4.70;;;;;;;27.03;49.47;100278.84;1698586;83;20998;-51
2021/08/17 06:52:44;;;;;;;6.87;5.22;;;;;;;27.04;49.46;100281.05;1704469;83;21184;-48
2021/08/17 06:55:11;;;;;;;9.08;5.08;;;;;;;27.03;49.45;100276.67;1703049;83;21004;-46
2021/08/17 06:57:38;;;;;;;7.28;4.75;;;;;;;27.03;49.44;100278.84;1703622;83;21116;-49
2021/08/17 07:00:06;;;;;;;7.17;4.50;;;;;;;27.03;49.40;100284.42;1702979;83;21514;-47
2021/08/17 07:02:32;;;;;;;6.33;4.97;;;;;;;27.04;49.39;100274.06;1700054;83;21029;-47
2021/08/17 07:04:59;;;;;;;8.98;5.03;;;;;;;27.03;49.37;100281.64;1705057;83;21393;-50
2021/08/17 07:07:25;;;;;;;6.20;4.78;;;;;;;27.03;49.34;100280.23;1700256;83;21018;-48
2021/08/17 07:09:51;;;;;;;8.48;4.78;;;;;;;27.02;49.32;100277.25;1701573;83;21189;-48
2021/08/17 07:12:17;;;;;;;6.62;4.92;;;;;;;27.02;49.30;100273.06;1703094;83;21053;-49
2021/08/17 07:14:43;;;;;;;7.03;4.90;;;;;;;27.03;49.26;100277.45;1698067;83;21085;-49
2021/08/17 07:17:09;;;;;;;6.58;4.50;;;;;;;27.03;49.22;100280.23;1703419;83;21155;-48
2021/08/17 07:19:36;;;;;;;7.58;4.72;;;;;;;27.03;49.20;100276.05;1702843;83;21446;-48
2021/08/17 07:22:02;;;;;;;7.05;4.47;;;;;;;27.04;49.19;100280.46;1700471;83;21101;-47
2021/08/17 07:24:29;;;;;;;6.33;4.80;;;;;;;27.03;49.14;100276.05;1702300;83;20995;-49
2021/08/17 07:26:55;;;;;;;7.03;4.40;;;;;;;27.04;49.12;100273.48;1698865;83;21110;-50
2021/08/17 07:29:22;;;;;;;5.15;4.15;;;;;;;27.03;49.08;100271.86;1700110;83;21397;-47
2021/08/17 07:31:48;;;;;;;7.35;4.75;;;;;;;27.03;49.06;100274.66;1699607;83;21094;-48
2021/08/17 07:34:14;;;;;;;5.83;4.33;;;;;;;27.03;49.04;100276.05;1699950;83;21579;-49
2021/08/17 07:36:40;;;;;;;6.70;4.80;;;;;;;27.04;49.01;100274.06;1703098;83;21083;-48
2021/08/17 07:39:08;;;;;;;5.80;4.58;;;;;;;27.04;48.98;100268.48;1701903;83;21067;-51
2021/08/17 07:41:34;;;;;;;6.15;4.45;;;;;;;27.04;48.94;100268.48;1704303;83;21624;-48
2021/08/17 07:44:00;;;;;;;6.87;3.60;;;;;;;27.03;48.93;100264.10;1701217;83;21001;-51
2021/08/17 07:46:27;;;;;;;6.40;4.72;;;;;;;27.04;48.88;100266.50;1703951;83;21061;-50
2021/08/17 07:48:53;;;;;;;7.30;4.80;;;;;;;27.03;48.85;100271.86;1702530;83;21134;-49
2021/08/17 07:51:19;;;;;;;5.00;4.05;;;;;;;27.05;48.84;100264.52;1701030;83;21127;-50
2021/08/17 07:53:45;;;;;;;6.30;4.25;;;;;;;27.04;48.80;100262.31;1699690;83;21275;-50
2021/08/17 07:56:11;;;;;;;4.45;3.37;;;;;;;27.04;48.78;100253.94;1701904;83;21527;-47
2021/08/17 07:58:38;;;;;;;6.50;3.90;;;;;;;27.05;48.74;100258.94;1695904;83;21088;-50
2021/08/17 08:01:04;;;;;;;5.60;4.05;;;;;;;27.05;48.71;100259.74;1696227;83;21120;-49
2021/08/17 08:03:31;;;;;;;5.78;4.12;;;;;;;27.05;48.66;100256.95;1702001;83;21091;-52
2021/08/17 08:05:57;;;;;;;6.80;4.03;;;;;;;27.05;48.66;100258.34;1702515;83;22295;-48
2021/08/17 08:08:23;;;;;;;5.65;3.87;;;;;;;27.07;48.61;100263.57;1704190;83;20927;-51
2021/08/17 08:10:49;;;;;;;4.35;3.67;;;;;;;27.06;48.60;100262.76;1703468;83;21153;-49
2021/08/17 08:13:15;;;;;;;4.95;3.37;;;;;;;27.07;48.57;100264.97;1696943;83;21644;-47
2021/08/17 08:15:41;;;;;;;5.67;3.90;;;;;;;27.07;48.55;100263.57;1694640;83;21037;-49
2021/08/17 08:18:08;;;;;;;4.62;3.30;;;;;;;27.07;48.53;100260.19;1701043;83;21100;-46
2021/08/17 08:20:35;;;;;;;7.05;3.67;;;;;;;27.08;48.50;100259.57;1697828;83;21095;-51
2021/08/17 08:23:01;;;;;;;5.47;3.47;;;;;;;27.08;48.48;100265.16;1701268;83;21557;-51
2021/08/17 08:25:27;;;;;;;4.95;3.40;;;;;;;27.08;48.47;100259.57;1701282;83;21323;-52
2021/08/17 08:27:55;;;;;;;7.28;3.47;;;;;;;27.07;48.44;100260.78;1696094;83;21057;-49
2021/08/17 08:30:21;;;;;;;5.00;3.67;;;;;;;27.08;48.44;100256.19;1692694;83;22353;-46
2021/08/17 08:32:47;;;;;;;5.70;3.12;;;;;;;27.08;48.40;100254.80;1700663;83;21081;-49
2021/08/17 08:35:13;;;;;;;3.95;2.90;;;;;;;27.08;48.38;100253.98;1700372;83;20973;-47
2021/08/17 08:37:39;;;;;;;4.58;3.15;;;;;;;27.08;48.37;100241.42;1699936;83;21465;-49
2021/08/17 08:40:07;;;;;;;4.67;3.22;;;;;;;27.08;48.37;100242.82;1699724;83;21063;-47
2021/08/17 08:42:33;;;;;;;6.75;3.45;;;;;;;27.07;48.29;100243.44;1697365;83;21102;-49
2021/08/17 08:44:59;;;;;;;6.05;3.45;;;;;;;27.05;48.15;100246.38;1702035;83;20912;-51
2021/08/17 08:47:25;;;;;;;5.90;3.40;;;;;;;27.01;47.99;100242.12;1731502;80;21121;-49
2021/08/17 08:49:52;;;;;;;4.37;3.15;;;;;;;26.98;47.82;100238.70;1722398;80;21595;-48
2021/08/17 08:52:18;;;;;;;4.72;3.30;;;;;;;26.95;47.65;100240.02;1730387;80;21689;-49
2021/08/17 08:54:45;;;;;;;7.70;6.83;;;;;;;26.92;47.47;100242.98;1723310;80;21791;-47
2021/08/17 08:57:11;;;;;;;9.50;8.55;;;;;;;26.89;47.32;100240.94;1728648;80;21088;-47
2021/08/17 08:59:37;;;;;;;9.05;8.23;;;;;;;26.86;47.12;100236.70;1733299;80;21456;-48
2021/08/17 09:02:10;;;;;;;10.15;9.10;;;;;;;26.83;46.94;100229.83;1737247;80;21078;-50
2021/08/17 09:04:38;;;;;;;11.05;10.05;;;;;;;26.82;46.78;100231.00;1732522;80;20993;-49
2021/08/17 09:07:05;;;;;;;13.15;12.05;;;;;;;26.79;46.59;100223.39;1724421;80;21220;-48
2021/08/17 09:09:31;;;;;;;14.07;12.68;;;;;;;26.76;46.42;100222.16;1726082;80;21073;-49
2021/08/17 09:11:59;;;;;;;13.75;12.35;;;;;;;26.73;46.23;100218.70;1733109;80;21109;-49
2021/08/17 09:14:30;;;;;;;12.47;11.25;;;;;;;26.71;46.07;100214.69;1724342;80;21120;-49
2021/08/17 09:17:03;;;;;;;12.13;10.93;;;;;;;26.69;45.92;100215.05;1729725;80;21490;-51
2021/08/17 09:19:38;;;;;;;10.98;9.88;;;;;;;26.68;45.77;100211.25;1726559;80;21143;-46
2021/08/17 09:22:19;;;;;;;10.68;9.68;;;;;;;26.66;45.61;100211.61;1726971;80;21033;-48
2021/08/17 09:24:51;;;;;;;10.90;9.80;;;;;;;26.64;45.45;100210.39;1730558;80;21064;-51
2021/08/17 09:27:21;;;;;;;9.30;8.50;;;;;;;26.62;45.29;100211.34;1729628;80;21064;-48
2021/08/17 09:29:52;;;;;;;9.75;8.78;;;;;;;26.60;45.13;100214.52;1728497;80;21053;-53
2021/08/17 09:32:22;;;;;;;;;;;;;;;26.58;44.97;100204.30;1733423;80;21888;-50
2021/08/17 09:34:51;;;;;;;8.93;8.03;;;;;;;26.57;44.83;100203.27;1739487;80;20220;-49
2021/08/17 09:37:17;;;;;;;9.33;8.43;;;;;;;26.54;44.81;100210.41;1731854;80;21090;-51
2021/08/17 09:39:47;;;;;;;9.48;7.72;;;;;;;26.53;44.64;100201.83;1717488;81;21086;-50
2021/08/17 09:42:23;;;;;;;8.55;7.75;;;;;;;26.52;44.50;100205.00;1731825;81;21019;-49
2021/08/17 09:45:15;;;;;;;8.70;7.87;;;;;;;26.51;44.34;100202.80;1720063;82;22579;-52
2021/08/17 09:47:48;;;;;;;7.97;7.17;;;;;;;26.50;44.19;100203.97;1688624;83;21626;-50
2021/08/17 09:50:27;;;;;;;7.90;7.10;;;;;;;26.49;44.02;100200.14;1714072;81;21058;-49
2021/08/17 09:53:15;;;;;;;9.20;7.00;;;;;;;26.48;43.87;100197.16;1691043;83;21884;-50
2021/08/17 09:55:48;;;;;;;7.40;6.60;;;;;;;26.46;43.71;100196.72;1704816;82;21177;-48
2021/08/17 09:58:30;;;;;;;8.35;6.72;;;;;;;26.45;43.55;100192.30;1705383;82;21530;-50
2021/08/17 10:01:00;;;;;;;7.30;6.35;;;;;;;26.43;43.42;100195.48;1707965;82;21114;-51
2021/08/17 10:03:27;;;;;;;6.30;5.78;;;;;;;26.42;43.28;100191.66;1686675;83;21095;-50
2021/08/17 10:05:54;;;;;;;8.00;5.80;;;;;;;26.41;43.15;100191.44;1719462;82;21020;-51
2021/08/17 10:08:22;;;;;;;6.53;5.90;;;;;;;26.40;43.01;100185.05;1720492;82;21098;-47
2021/08/17 10:10:51;;;;;;;6.75;5.40;;;;;;;26.38;42.91;100183.83;1719641;82;21226;-49
2021/08/17 10:13:19;;;;;;;6.40;5.80;;;;;;;26.38;42.80;100180.45;1716058;82;21145;-52
2021/08/17 10:15:46;;;;;;;6.08;5.33;;;;;;;26.39;42.69;100179.86;1711334;82;21087;-51
2021/08/17 10:18:21;;;;;;;6.15;5.33;;;;;;;26.39;42.61;100179.28;1718883;82;21095;-50
2021/08/17 10:20:49;;;;;;;5.72;5.20;;;;;;;26.38;42.50;100182.43;1719116;82;21043;-51
2021/08/17 10:23:20;;;;;;;5.83;5.22;;;;;;;26.37;42.41;100171.86;1713873;82;21760;-49
2021/08/17 10:25:56;;;;;;;6.95;6.22;;;;;;;26.37;42.30;100169.07;1719356;82;20979;-50
2021/08/17 10:28:34;;;;;;;6.20;5.60;;;;;;;26.35;42.22;100166.64;1717002;82;21086;-47
2021/08/17 10:31:18;;;;;;;6.30;5.70;;;;;;;26.34;42.12;100167.84;1717361;82;21063;-51
2021/08/17 10:33:54;;;;;;;6.45;5.85;;;;;;;26.33;42.03;100173.20;1715320;82;21151;-51
2021/08/17 10:36:38;;;;;;;7.20;6.25;;;;;;;26.32;41.95;100163.80;1719237;82;21541;-52
2021/08/17 10:39:07;;;;;;;7.28;5.92;;;;;;;26.31;41.89;100161.59;1718960;82;21557;-51
2021/08/17 10:41:36;;;;;;;6.75;6.05;;;;;;;26.31;41.80;100164.97;1714543;82;21522;-49
2021/08/17 10:44:07;;;;;;;9.67;8.37;;;;;;;26.29;41.70;100168.15;1714730;82;21535;-46
2021/08/17 10:46:52;;;;;;;8.68;7.78;;;;;;;26.29;41.64;100158.39;1711584;82;21059;-47
2021/08/17 10:49:45;;;;;;;9.30;7.15;;;;;;;26.30;41.55;100162.80;1712976;82;22378;-56
2021/08/17 10:52:30;;;;;;;8.98;6.92;;;;;;;26.29;41.48;100152.81;1740364;80;21083;-56
2021/08/17 10:55:23;;;;;;;7.20;6.50;;;;;;;26.32;41.53;100159.61;1736684;81;21482;-56
2021/08/17 10:58:02;;;;;;;8.10;6.60;;;;;;;26.36;41.53;100160.48;1721676;81;21105;-56
2021/08/17 11:00:53;;;;;;;7.20;6.03;;;;;;;26.42;41.55;100154.01;1741118;81;21476;-56
2021/08/17 11:03:40;;;;;;;8.30;6.17;;;;;;;26.47;41.54;100154.52;1738962;81;21565;-56
2021/08/17 11:06:06;;;;;;;8.38;6.72;;;;;;;26.52;41.56;100150.60;1729938;81;21457;-56
2021/08/17 11:08:38;;;;;;;8.73;6.40;;;;;;;26.57;41.57;100151.08;1733691;81;21014;-56
2021/08/17 11:11:18;;;;;;;7.28;6.17;;;;;;;26.61;41.61;100147.75;1741592;80;21041;-56
2021/08/17 11:14:17;;;;;;;6.05;5.42;;;;;;;26.67;41.64;100146.84;1708500;82;45364;-56
2021/08/17 11:16:50;;;;;;;7.65;6.15;;;;;;;26.70;41.72;100145.50;1739929;80;21106;-56
2021/08/17 11:19:18;;;;;;;7.08;5.97;;;;;;;26.75;41.78;100144.38;1731825;80;20922;-56
2021/08/17 11:21:48;;;;;;;6.97;6.28;;;;;;;26.78;41.82;100133.86;1741621;80;21015;-56
2021/08/17 11:24:21;;;;;;;7.55;5.92;;;;;;;26.81;41.89;100128.94;1748211;80;21017;-56